Time;durP1;ratioP1;P1;durP2;ratioP2;P2;SDS_P1;SDS_P2;PMS_P1;PMS_P2;Temp;Humidity;BMP_temperature;BMP_pressure;BME280_temperature;BME280_humidity;BME280_pressure;Samples;Min_cycle;Max_cycle;Signal;HPM_P1;HPM_P2
2022/09/05 00:00:23;;;;;;;1.55;1.42;;;24.10;67.60;;;;;;5031013;28;20568;-68
2022/09/05 00:03:11;;;;;;;2.45;1.55;;;24.10;67.60;;;;;;5014878;28;20052;-68
2022/09/05 00:05:39;;;;;;;1.92;1.70;;;24.10;67.60;;;;;;5016764;28;20033;-68
2022/09/05 00:08:29;;;;;;;1.67;1.35;;;24.00;67.60;;;;;;5031040;28;20030;-68
2022/09/05 00:11:09;;;;;;;2.85;1.70;;;24.00;67.70;;;;;;5016784;28;20044;-68
2022/09/05 00:13:38;;;;;;;1.88;1.40;;;24.00;67.60;;;;;;5030946;28;20038;-68
2022/09/05 00:16:28;;;;;;;3.22;1.60;;;24.00;67.60;;;;;;5014663;28;20068;-68
2022/09/05 00:19:05;;;;;;;2.65;1.60;;;24.00;67.70;;;;;;5030721;28;20037;-67
2022/09/05 00:21:45;;;;;;;4.80;1.58;;;24.00;67.80;;;;;;5030650;28;20029;-68
2022/09/05 00:24:29;;;;;;;2.70;1.50;;;24.00;67.70;;;;;;5014764;28;20106;-68
2022/09/05 00:27:09;;;;;;;1.83;1.60;;;24.00;67.80;;;;;;4991734;28;20027;-68
2022/09/05 00:29:53;;;;;;;3.17;1.30;;;24.00;67.80;;;;;;4975058;28;20030;-68
2022/09/05 00:32:35;;;;;;;1.55;1.45;;;24.00;67.80;;;;;;5053740;28;20032;-67
2022/09/05 00:35:04;;;;;;;2.40;1.30;;;24.00;67.90;;;;;;5112858;28;20024;-68
2022/09/05 00:37:38;;;;;;;2.47;1.40;;;24.00;67.80;;;;;;5112166;28;20030;-68
2022/09/05 00:40:13;;;;;;;2.90;1.40;;;24.00;67.90;;;;;;5111517;28;20074;-68
2022/09/05 00:42:39;;;;;;;2.72;1.20;;;24.00;67.80;;;;;;5113218;28;20026;-68
2022/09/05 00:45:06;;;;;;;3.85;1.48;;;24.00;67.80;;;;;;5094826;28;20051;-68
2022/09/05 00:48:05;;;;;;;1.70;1.17;;;24.00;67.80;;;;;;5111476;28;20078;-67
2022/09/05 00:51:02;;;;;;;1.48;1.20;;;24.00;67.80;;;;;;5112986;28;20035;-68
2022/09/05 00:53:32;;;;;;;2.30;1.60;;;24.00;67.80;;;;;;5103372;28;20028;-67
2022/09/05 00:56:33;;;;;;;2.10;1.38;;;24.00;68.00;;;;;;5111806;28;20023;-68
2022/09/05 00:59:36;;;;;;;2.42;1.40;;;24.00;67.80;;;;;;5108514;28;20039;-67
2022/09/05 01:02:32;;;;;;;2.85;1.50;;;24.00;67.80;;;;;;5112634;28;20407;-68
2022/09/05 01:05:03;;;;;;;2.22;1.20;;;23.90;67.90;;;;;;5112779;28;20057;-68
2022/09/05 01:07:47;;;;;;;1.40;1.30;;;23.90;67.90;;;;;;5094684;28;20073;-67
2022/09/05 01:10:20;;;;;;;2.85;1.40;;;23.90;67.90;;;;;;5096375;28;20011;-68
2022/09/05 01:13:02;;;;;;;1.88;1.42;;;23.90;68.00;;;;;;5111420;28;20038;-68
2022/09/05 01:15:57;;;;;;;2.08;1.20;;;23.90;67.90;;;;;;5112687;28;20030;-67
2022/09/05 01:18:40;;;;;;;3.38;1.35;;;23.90;67.90;;;;;;5111551;28;20034;-68
2022/09/05 01:21:11;;;;;;;;;;;23.90;67.90;;;;;;5111552;28;20027;-68
2022/09/05 01:23:43;;;;;;;2.22;1.50;;;23.90;68.00;;;;;;5111095;28;19903;-68
2022/09/05 01:26:21;;;;;;;2.17;1.20;;;23.90;68.00;;;;;;5085326;28;20032;-67
2022/09/05 01:29:07;;;;;;;2.17;1.15;;;23.90;68.00;;;;;;5070995;28;20028;-68
2022/09/05 01:31:39;;;;;;;2.17;1.23;;;23.90;68.00;;;;;;5071848;28;20492;-68
2022/09/05 01:34:23;;;;;;;2.83;1.50;;;23.90;68.00;;;;;;5105576;28;20031;-68
2022/09/05 01:37:30;;;;;;;3.60;1.17;;;23.90;67.90;;;;;;5112349;28;20019;-68
2022/09/05 01:40:31;;;;;;;3.55;1.35;;;23.90;68.00;;;;;;5101525;28;20039;-68
2022/09/05 01:43:12;;;;;;;2.40;1.48;;;23.90;68.00;;;;;;5067326;28;20103;-68
2022/09/05 01:45:53;;;;;;;6.13;1.48;;;23.90;68.10;;;;;;5115535;28;20028;-68
2022/09/05 01:48:46;;;;;;;2.50;1.45;;;23.90;68.00;;;;;;5114924;28;20035;-68
2022/09/05 01:51:56;;;;;;;2.15;1.40;;;23.90;68.10;;;;;;5115969;28;20528;-68
2022/09/05 01:55:01;;;;;;;1.33;1.20;;;23.90;68.10;;;;;;5102795;28;20030;-68
2022/09/05 01:57:36;;;;;;;1.85;1.17;;;23.90;68.10;;;;;;5114978;28;20039;-68
2022/09/05 02:00:27;;;;;;;1.92;1.20;;;23.90;68.10;;;;;;5116014;28;20129;-67
2022/09/05 02:03:06;;;;;;;2.83;1.25;;;23.90;68.10;;;;;;5114841;28;20034;-67
2022/09/05 02:05:53;;;;;;;1.40;1.30;;;23.80;68.10;;;;;;5114513;28;20016;-68
2022/09/05 02:08:43;;;;;;;3.03;1.40;;;23.90;68.10;;;;;;5115803;28;20024;-68
2022/09/05 02:11:12;;;;;;;2.25;1.20;;;23.80;68.00;;;;;;5115905;28;20023;-68
2022/09/05 02:14:22;;;;;;;2.05;1.25;;;23.80;68.10;;;;;;5097755;28;20024;-68
2022/09/05 02:16:47;;;;;;;3.33;1.15;;;23.90;68.10;;;;;;5111676;28;20039;-68
2022/09/05 02:19:21;;;;;;;3.15;1.42;;;23.80;68.10;;;;;;5097492;28;20046;-68
2022/09/05 02:22:10;;;;;;;2.35;1.40;;;23.80;68.20;;;;;;5097943;28;20038;-68
2022/09/05 02:24:37;;;;;;;1.67;1.10;;;23.80;68.10;;;;;;5097421;28;20028;-68
2022/09/05 02:27:20;;;;;;;3.53;1.50;;;23.80;68.10;;;;;;5057051;28;20166;-68
2022/09/05 02:30:27;;;;;;;1.73;1.13;;;23.80;68.10;;;;;;5073691;28;20033;-68
2022/09/05 02:33:10;;;;;;;3.30;1.10;;;23.80;68.10;;;;;;5039480;28;20493;-68
2022/09/05 02:35:51;;;;;;;2.17;1.20;;;23.80;68.10;;;;;;5052235;28;20056;-68
2022/09/05 02:38:36;;;;;;;2.72;1.38;;;23.80;68.10;;;;;;5052477;28;20109;-68
2022/09/05 02:41:16;;;;;;;1.42;1.08;;;23.80;68.10;;;;;;5052487;28;20504;-68
2022/09/05 02:43:43;;;;;;;1.98;1.40;;;23.80;68.10;;;;;;5052545;28;20514;-68
2022/09/05 02:46:45;;;;;;;2.17;1.33;;;23.80;68.10;;;;;;5052653;28;20020;-68
2022/09/05 02:49:20;;;;;;;1.73;1.08;;;23.80;68.10;;;;;;4973144;28;20129;-68
2022/09/05 02:51:58;;;;;;;2.50;1.27;;;23.80;68.20;;;;;;4973225;28;20031;-68
2022/09/05 02:54:27;;;;;;;1.63;1.20;;;23.80;68.20;;;;;;4973019;28;20034;-68
2022/09/05 02:57:10;;;;;;;3.70;1.42;;;23.70;68.20;;;;;;4972096;28;20030;-68
2022/09/05 02:59:47;;;;;;;1.63;1.27;;;23.80;68.20;;;;;;4973246;28;20050;-68
2022/09/05 03:02:22;;;;;;;3.47;1.48;;;23.70;68.20;;;;;;4973496;28;20557;-68
2022/09/05 03:04:50;;;;;;;2.17;1.20;;;23.80;68.20;;;;;;4973430;28;20073;-68
2022/09/05 03:07:34;;;;;;;2.65;1.30;;;23.70;68.20;;;;;;5012537;28;20040;-67
2022/09/05 03:10:24;;;;;;;3.17;1.50;;;23.70;68.20;;;;;;5032406;28;20129;-67
2022/09/05 03:13:09;;;;;;;2.42;1.30;;;23.70;68.20;;;;;;5032094;28;20059;-68
2022/09/05 03:15:53;;;;;;;2.50;1.10;;;23.70;68.20;;;;;;5031957;28;20033;-68
2022/09/05 03:18:43;;;;;;;1.50;1.13;;;23.70;68.20;;;;;;5031768;28;20075;-68
2022/09/05 03:21:51;;;;;;;2.22;1.38;;;23.70;68.20;;;;;;5031743;28;20030;-68
2022/09/05 03:24:22;;;;;;;2.95;1.30;;;23.70;68.20;;;;;;5012013;28;20038;-68
2022/09/05 03:27:03;;;;;;;1.60;1.20;;;23.70;68.30;;;;;;5034210;28;20537;-68
2022/09/05 03:29:50;;;;;;;3.05;1.40;;;23.70;68.30;;;;;;5031769;28;20038;-68
2022/09/05 03:32:47;;;;;;;3.33;1.48;;;23.70;68.30;;;;;;5034467;28;20057;-68
2022/09/05 03:35:37;;;;;;;1.73;1.00;;;23.70;68.30;;;;;;5071307;28;20033;-68
2022/09/05 03:38:11;;;;;;;2.92;1.60;;;23.70;68.30;;;;;;5071625;28;20121;-67
2022/09/05 03:40:47;;;;;;;1.70;1.25;;;23.70;68.30;;;;;;5071320;28;20048;-68
2022/09/05 03:43:39;;;;;;;10.75;1.60;;;23.70;68.30;;;;;;5038536;28;20050;-68
2022/09/05 03:46:27;;;;;;;3.15;1.40;;;23.70;68.30;;;;;;5054945;28;20025;-67
2022/09/05 03:48:55;;;;;;;1.55;1.30;;;23.70;68.30;;;;;;5054565;28;20060;-68
2022/09/05 03:51:33;;;;;;;2.92;1.50;;;23.70;68.40;;;;;;5071432;28;20028;-67
2022/09/05 03:54:17;;;;;;;1.77;1.17;;;23.70;68.30;;;;;;5071312;28;20028;-68
2022/09/05 03:57:18;;;;;;;1.85;1.13;;;23.70;68.40;;;;;;5071171;28;20107;-68
2022/09/05 04:00:10;;;;;;;3.53;1.30;;;23.70;68.30;;;;;;5030972;28;20037;-67
2022/09/05 04:02:56;;;;;;;1.80;1.17;;;23.70;68.40;;;;;;5030778;28;20038;-68
2022/09/05 04:05:24;;;;;;;0.80;0.80;;;23.70;68.30;;;;;;5024076;28;20346;-67
2022/09/05 04:07:54;;;;;;;4.03;1.60;;;23.70;68.50;;;;;;5014478;28;20075;-68
2022/09/05 04:10:30;;;;;;;1.35;1.20;;;23.70;68.40;;;;;;5014321;28;20052;-68
2022/09/05 04:13:00;;;;;;;1.80;1.40;;;23.70;68.40;;;;;;5015007;28;20029;-68
2022/09/05 04:15:39;;;;;;;1.52;1.25;;;23.70;68.50;;;;;;4997629;28;20165;-67
2022/09/05 04:18:41;;;;;;;1.25;0.90;;;23.60;68.40;;;;;;5014469;28;20477;-67
2022/09/05 04:21:28;;;;;;;5.32;1.38;;;23.60;68.30;;;;;;5018431;28;20038;-67
2022/09/05 04:24:07;;;;;;;1.50;1.10;;;23.60;68.40;;;;;;5014130;28;20401;-68
2022/09/05 04:26:50;;;;;;;1.90;1.13;;;23.60;68.40;;;;;;4994422;28;20218;-74
2022/09/05 04:29:25;;;;;;;2.28;1.15;;;23.60;68.40;;;;;;4991369;28;20124;-74
2022/09/05 04:32:01;;;;;;;2.13;1.00;;;23.60;68.40;;;;;;4974995;28;20038;-74
2022/09/05 04:34:54;;;;;;;3.28;1.20;;;23.60;68.40;;;;;;5042807;28;20499;-74
2022/09/05 04:37:46;;;;;;;2.70;1.17;;;23.60;68.40;;;;;;5094680;28;20399;-74
2022/09/05 04:40:30;;;;;;;2.25;1.10;;;23.60;68.40;;;;;;5096921;28;20019;-74
2022/09/05 04:43:05;;;;;;;1.90;1.20;;;23.60;68.40;;;;;;5112992;28;20023;-74
2022/09/05 04:45:36;;;;;;;4.03;1.40;;;23.60;68.40;;;;;;5111577;28;20023;-74
2022/09/05 04:48:02;;;;;;;3.17;1.30;;;23.60;68.50;;;;;;5111753;28;20067;-74
2022/09/05 04:50:28;;;;;;;3.25;1.13;;;23.60;68.50;;;;;;5111620;28;20051;-74
2022/09/05 04:53:06;;;;;;;1.98;1.05;;;23.60;68.50;;;;;;5111642;28;20055;-74
2022/09/05 04:55:45;;;;;;;4.93;1.42;;;23.60;68.50;;;;;;5111706;28;20035;-74
2022/09/05 04:58:11;;;;;;;1.80;1.20;;;23.60;68.50;;;;;;5111918;28;20536;-74
2022/09/05 05:00:49;;;;;;;1.80;1.10;;;23.60;68.50;;;;;;5112477;28;20024;-74
2022/09/05 05:03:16;;;;;;;2.63;1.23;;;23.60;68.50;;;;;;5096095;28;20475;-74
2022/09/05 05:05:48;;;;;;;7.40;1.13;;;23.60;68.50;;;;;;5094458;28;20387;-74
2022/09/05 05:08:33;;;;;;;2.83;1.13;;;23.60;68.50;;;;;;5112737;28;20069;-74
2022/09/05 05:11:18;;;;;;;1.65;1.10;;;23.60;68.50;;;;;;5111782;28;20031;-74
2022/09/05 05:13:56;;;;;;;1.92;0.88;;;23.60;68.50;;;;;;5094271;28;20024;-74
2022/09/05 05:16:24;;;;;;;2.08;1.00;;;23.60;68.60;;;;;;5094859;28;20037;-74
2022/09/05 05:19:12;;;;;;;1.63;1.20;;;23.60;68.60;;;;;;5094921;28;20024;-74
2022/09/05 05:21:42;;;;;;;3.58;1.40;;;23.60;68.60;;;;;;5115658;28;20042;-74
2022/09/05 05:24:12;;;;;;;2.25;1.10;;;23.60;68.70;;;;;;5115544;28;20054;-74
2022/09/05 05:27:07;;;;;;;2.47;1.05;;;23.60;68.70;;;;;;5080480;28;20074;-74
2022/09/05 05:29:58;;;;;;;3.47;1.27;;;23.60;68.60;;;;;;5074687;28;20042;-74
2022/09/05 05:32:51;;;;;;;3.28;1.17;;;23.60;68.60;;;;;;5072984;28;20032;-74
2022/09/05 05:35:30;;;;;;;1.67;1.17;;;23.60;68.60;;;;;;5116624;28;20034;-74
2022/09/05 05:38:33;;;;;;;2.80;1.10;;;23.60;69.70;;;;;;5098533;28;20114;-74
2022/09/05 05:41:26;;;;;;;2.15;1.30;;;23.50;68.60;;;;;;5116494;28;20028;-74
2022/09/05 05:43:52;;;;;;;2.25;1.00;;;23.50;68.60;;;;;;5016837;28;20420;-74
2022/09/05 05:46:34;;;;;;;1.75;1.10;;;23.50;68.70;;;;;;5017232;28;20029;-74
2022/09/05 05:49:09;;;;;;;3.03;1.33;;;23.50;68.70;;;;;;5017341;28;20114;-74
2022/09/05 05:51:45;;;;;;;2.88;1.23;;;23.50;68.70;;;;;;5017680;28;20025;-75
2022/09/05 05:54:28;;;;;;;1.67;0.90;;;23.60;68.80;;;;;;5017602;28;20142;-75
2022/09/05 05:57:14;;;;;;;1.88;1.05;;;23.50;67.60;;;;;;5016847;28;20025;-74
2022/09/05 06:00:00;;;;;;;2.95;1.02;;;23.50;66.90;;;;;;5033142;28;20033;-75
2022/09/05 06:02:53;;;;;;;2.75;0.93;;;23.50;66.80;;;;;;5031542;28;20033;-75
2022/09/05 06:05:40;;;;;;;2.80;0.95;;;23.40;66.90;;;;;;4999060;28;20035;-75
2022/09/05 06:08:11;;;;;;;1.38;0.80;;;23.40;66.80;;;;;;5012704;28;20445;-75
2022/09/05 06:10:50;;;;;;;1.02;0.88;;;23.40;66.80;;;;;;5013457;28;20034;-74
2022/09/05 06:13:33;;;;;;;2.88;1.05;;;23.40;66.80;;;;;;5013203;28;20457;-74
2022/09/05 06:16:36;;;;;;;2.33;1.05;;;23.40;66.80;;;;;;5013527;28;20030;-74
2022/09/05 06:19:24;;;;;;;3.60;1.40;;;23.40;66.80;;;;;;5013420;28;20030;-75
2022/09/05 06:21:50;;;;;;;2.95;1.08;;;23.40;66.80;;;;;;5094041;28;20043;-75
2022/09/05 06:24:37;;;;;;;1.50;1.05;;;23.30;66.70;;;;;;5095186;28;20028;-75
2022/09/05 06:27:05;;;;;;;1.77;0.82;;;23.30;66.70;;;;;;5088317;28;20034;-75
2022/09/05 06:29:45;;;;;;;2.20;1.10;;;23.30;66.80;;;;;;5086997;28;20028;-74
2022/09/05 06:32:53;;;;;;;1.83;1.00;;;23.30;66.70;;;;;;5094099;28;20020;-75
2022/09/05 06:35:56;;;;;;;1.63;1.00;;;23.30;66.70;;;;;;5093884;28;20028;-75
2022/09/05 06:38:55;;;;;;;2.92;1.00;;;23.30;66.70;;;;;;5094938;28;20063;-74
2022/09/05 06:41:24;;;;;;;2.42;1.08;;;23.30;66.90;;;;;;5094790;28;20071;-75
2022/09/05 06:44:41;;;;;;;2.22;0.80;;;23.30;66.90;;;;;;5094834;28;20017;-74
2022/09/05 06:47:09;;;;;;;9.98;1.73;;;23.30;67.00;;;;;;5051418;28;20048;-75
2022/09/05 06:49:59;;;;;;;16.02;2.70;;;23.30;67.00;;;;;;5073573;28;20021;-76
2022/09/05 06:52:33;;;;;;;42.58;5.00;;;23.30;67.10;;;;;;5074588;28;20024;-75
2022/09/05 06:55:31;;;;;;;23.85;4.10;;;23.20;67.30;;;;;;5073029;28;20021;-75
2022/09/05 06:58:18;;;;;;;27.58;4.82;;;23.20;67.40;;;;;;5055307;28;20420;-75
2022/09/05 07:00:53;;;;;;;14.35;3.70;;;23.20;67.50;;;;;;5074207;28;20028;-75
2022/09/05 07:03:47;;;;;;;10.88;2.95;;;23.20;67.50;;;;;;5074175;28;20021;-75
2022/09/05 07:06:19;;;;;;;11.38;3.38;;;23.20;67.40;;;;;;5074356;28;20032;-75
2022/09/05 07:08:57;;;;;;;14.02;3.38;;;23.20;67.50;;;;;;5092871;28;20035;-75
2022/09/05 07:11:29;;;;;;;20.05;3.45;;;23.20;67.50;;;;;;5095603;28;20023;-75
2022/09/05 07:14:17;;;;;;;14.07;4.00;;;23.20;67.60;;;;;;5093153;28;20020;-75
2022/09/05 07:16:57;;;;;;;14.52;3.70;;;23.20;67.60;;;;;;5105622;28;20031;-75
2022/09/05 07:19:28;;;;;;;18.67;4.88;;;23.20;67.50;;;;;;5095388;28;20031;-75
2022/09/05 07:22:06;;;;;;;14.13;3.58;;;23.20;67.60;;;;;;5113148;28;20031;-75
2022/09/05 07:24:34;;;;;;;12.88;3.67;;;23.20;67.60;;;;;;5108965;28;20016;-75
2022/09/05 07:26:59;;;;;;;17.48;4.03;;;23.20;67.60;;;;;;5072526;28;20024;-75
2022/09/05 07:29:31;;;;;;;14.80;3.15;;;23.10;67.60;;;;;;5056075;28;20439;-75
2022/09/05 07:31:56;;;;;;;15.93;3.70;;;23.10;67.50;;;;;;5073928;28;20023;-75
2022/09/05 07:34:29;;;;;;;20.50;3.67;;;23.20;67.60;;;;;;5072512;28;20095;-75
2022/09/05 07:36:56;;;;;;;19.00;4.50;;;23.10;67.60;;;;;;5072248;28;20009;-75
2022/09/05 07:39:27;;;;;;;11.65;3.42;;;23.10;68.60;;;;;;5055697;28;20028;-75
2022/09/05 07:41:55;;;;;;;13.38;3.72;;;23.10;67.60;;;;;;5070528;28;20015;-75
2022/09/05 07:44:40;;;;;;;20.02;4.55;;;23.10;67.50;;;;;;5096254;28;20475;-75
2022/09/05 07:47:34;;;;;;;16.13;3.45;;;23.10;67.50;;;;;;5112626;28;20089;-75
2022/09/05 07:50:05;;;;;;;15.50;4.10;;;23.10;67.60;;;;;;5112990;28;20028;-75
2022/09/05 07:52:32;;;;;;;13.43;4.03;;;23.10;67.60;;;;;;5096063;28;20031;-75
2022/09/05 07:55:22;;;;;;;13.48;3.65;;;23.10;67.50;;;;;;5095614;28;20045;-75
2022/09/05 07:57:47;;;;;;;12.30;3.60;;;23.10;67.50;;;;;;5097967;28;20026;-75
2022/09/05 08:00:19;;;;;;;14.27;4.18;;;23.10;67.60;;;;;;5095711;28;20028;-75
2022/09/05 08:02:45;;;;;;;14.00;3.90;;;23.10;67.50;;;;;;5112647;28;20015;-75
2022/09/05 08:05:15;;;;;;;8.00;2.88;;;23.10;67.50;;;;;;5095629;28;20106;-75
2022/09/05 08:07:43;;;;;;;12.65;3.97;;;23.10;67.50;;;;;;5108851;28;20043;-75
2022/09/05 08:10:20;;;;;;;12.40;3.30;;;23.10;67.50;;;;;;5071846;28;20056;-75
2022/09/05 08:12:47;;;;;;;8.73;3.13;;;23.10;67.50;;;;;;5071830;28;20113;-75
2022/09/05 08:15:17;;;;;;;11.60;3.20;;;23.10;67.60;;;;;;5073618;28;20127;-75
2022/09/05 08:18:08;;;;;;;12.40;4.03;;;23.10;67.50;;;;;;5095448;28;20015;-75
2022/09/05 08:20:48;;;;;;;10.55;3.20;;;23.10;67.50;;;;;;5113360;28;20031;-76
2022/09/05 08:23:33;;;;;;;12.20;3.25;;;23.10;67.50;;;;;;5113214;28;20042;-75
2022/09/05 08:26:29;;;;;;;10.70;3.42;;;23.10;67.50;;;;;;5113181;28;20050;-75
2022/09/05 08:29:14;;;;;;;13.35;3.33;;;23.00;67.40;;;;;;5111944;28;20487;-75
2022/09/05 08:31:44;;;;;;;9.70;3.17;;;23.00;67.40;;;;;;5113329;28;20467;-75
2022/09/05 08:34:17;;;;;;;10.02;3.67;;;23.00;67.50;;;;;;5111976;28;20072;-75
2022/09/05 08:36:51;;;;;;;15.27;3.30;;;23.00;67.50;;;;;;5111893;28;20027;-75
2022/09/05 08:39:19;;;;;;;10.93;3.05;;;23.00;67.40;;;;;;5094766;28;20076;-75
2022/09/05 08:41:45;;;;;;;14.95;3.67;;;23.00;67.50;;;;;;5094961;28;20118;-75
2022/09/05 08:44:18;;;;;;;13.45;3.45;;;23.00;67.50;;;;;;5113144;28;20212;-75
2022/09/05 08:47:05;;;;;;;11.13;3.63;;;23.00;67.50;;;;;;5111729;28;20040;-75
2022/09/05 08:49:53;;;;;;;16.17;3.58;;;23.00;67.40;;;;;;5097408;28;20440;-75
2022/09/05 08:52:36;;;;;;;9.40;3.25;;;23.00;67.50;;;;;;5111525;28;20391;-75
2022/09/05 08:55:05;;;;;;;9.77;3.50;;;23.00;67.50;;;;;;5111892;28;20023;-75
2022/09/05 08:57:58;;;;;;;10.13;3.20;;;23.00;67.50;;;;;;5113085;28;20384;-75
2022/09/05 09:00:25;;;;;;;10.15;2.85;;;23.00;67.40;;;;;;5112714;28;20028;-75
2022/09/05 09:03:11;;;;;;;8.30;3.25;;;23.00;67.50;;;;;;5111523;28;20460;-75
2022/09/05 09:05:58;;;;;;;10.55;3.50;;;23.00;67.50;;;;;;5112497;28;20030;-75
2022/09/05 09:08:35;;;;;;;8.45;3.00;;;23.00;67.50;;;;;;5097647;28;20032;-75
2022/09/05 09:11:07;;;;;;;8.23;2.90;;;23.00;67.50;;;;;;5070809;28;20535;-75
2022/09/05 09:13:51;;;;;;;9.30;3.50;;;23.00;67.50;;;;;;5071026;28;20028;-75
2022/09/05 09:16:22;;;;;;;9.82;3.20;;;23.00;67.50;;;;;;5091638;28;20266;-75
2022/09/05 09:18:48;;;;;;;8.85;2.88;;;23.00;67.60;;;;;;5112605;28;20062;-75
2022/09/05 09:21:22;;;;;;;6.82;2.75;;;23.00;67.50;;;;;;5112330;28;20062;-75
2022/09/05 09:23:50;;;;;;;7.35;2.40;;;23.00;67.50;;;;;;5111248;28;20441;-75
2022/09/05 09:26:26;;;;;;;7.45;2.65;;;22.90;67.50;;;;;;5094585;28;20065;-75
2022/09/05 09:29:02;;;;;;;9.98;2.88;;;22.90;67.50;;;;;;5095766;28;20556;-75
2022/09/05 09:31:38;;;;;;;7.32;3.00;;;23.00;67.50;;;;;;5111337;28;20398;-75
2022/09/05 09:34:12;;;;;;;5.70;2.22;;;22.90;67.50;;;;;;5111284;28;20594;-75
2022/09/05 09:36:57;;;;;;;8.50;2.83;;;22.90;67.50;;;;;;5112352;28;20024;-75
2022/09/05 09:39:44;;;;;;;8.82;2.80;;;22.90;67.50;;;;;;5111121;28;20019;-75
2022/09/05 09:42:21;;;;;;;9.93;2.70;;;22.90;67.50;;;;;;5112378;28;20460;-75
2022/09/05 09:45:10;;;;;;;5.85;2.60;;;22.90;67.50;;;;;;5112397;28;20020;-75
2022/09/05 09:47:44;;;;;;;6.22;2.50;;;22.90;67.50;;;;;;5112239;28;20515;-75
2022/09/05 09:50:33;;;;;;;7.35;2.92;;;22.90;67.50;;;;;;5094476;28;20368;-75
2022/09/05 09:53:14;;;;;;;6.22;2.67;;;22.90;67.50;;;;;;5112028;28;20096;-75
2022/09/05 09:55:58;;;;;;;8.52;2.70;;;22.90;67.50;;;;;;5112274;28;20027;-75
2022/09/05 09:58:51;;;;;;;6.18;2.60;;;22.90;67.60;;;;;;5112282;28;20491;-75
2022/09/05 10:01:37;;;;;;;5.97;2.63;;;22.90;67.50;;;;;;5112321;28;20028;-75
2022/09/05 10:04:18;;;;;;;7.90;2.85;;;22.90;67.60;;;;;;5095165;28;20107;-75
2022/09/05 10:06:56;;;;;;;7.10;2.60;;;22.90;67.60;;;;;;5114304;28;20027;-75
2022/09/05 10:09:33;;;;;;;5.28;2.78;;;22.90;67.60;;;;;;5084660;28;20100;-75
2022/09/05 10:12:27;;;;;;;5.82;2.33;;;22.90;67.60;;;;;;5075307;28;20107;-75
2022/09/05 10:15:04;;;;;;;5.82;2.30;;;22.90;67.60;;;;;;5074088;28;20400;-75
2022/09/05 10:17:35;;;;;;;5.75;2.50;;;22.90;67.60;;;;;;5115538;28;20028;-75
2022/09/05 10:20:13;;;;;;;8.00;2.78;;;22.90;67.70;;;;;;5115572;28;20016;-75
2022/09/05 10:22:52;;;;;;;7.45;3.00;;;22.90;67.70;;;;;;5115836;28;20028;-75
2022/09/05 10:25:45;;;;;;;4.05;2.55;;;22.90;67.70;;;;;;5115730;28;20019;-75
2022/09/05 10:28:13;;;;;;;4.70;2.40;;;22.90;67.70;;;;;;5114387;28;20012;-75
2022/09/05 10:30:42;;;;;;;5.95;2.60;;;22.90;67.70;;;;;;5114618;28;20035;-75
2022/09/05 10:33:41;;;;;;;7.45;2.50;;;22.90;67.70;;;;;;5115360;28;20028;-75
2022/09/05 10:36:24;;;;;;;7.35;2.45;;;22.90;67.70;;;;;;5032663;28;20038;-75
2022/09/05 10:39:16;;;;;;;5.40;2.28;;;22.90;67.70;;;;;;5016599;28;20033;-75
2022/09/05 10:41:56;;;;;;;6.05;2.30;;;22.90;67.70;;;;;;5017968;28;20030;-75
2022/09/05 10:44:44;;;;;;;6.25;2.30;;;22.90;67.70;;;;;;5017012;28;20033;-75
2022/09/05 10:47:37;;;;;;;4.82;2.78;;;22.90;67.80;;;;;;5032239;28;20049;-75
2022/09/05 10:50:05;;;;;;;;;;;22.90;67.80;;;;;;5019131;28;20501;-75
2022/09/05 10:52:35;;;;;;;6.35;2.60;;;22.90;67.70;;;;;;5032373;28;19909;-75
2022/09/05 10:56:00;;;;;;;7.97;2.58;;;22.90;67.90;;;;;;5015759;28;20025;-75
2022/09/05 10:58:33;;;;;;;4.03;1.90;;;22.90;67.80;;;;;;4942094;28;20066;-75
2022/09/05 11:01:05;;;;;;;6.18;2.25;;;22.80;67.80;;;;;;4957349;28;20023;-75
2022/09/05 11:03:44;;;;;;;4.90;2.20;;;22.90;67.90;;;;;;4957331;28;20035;-75
2022/09/05 11:06:13;;;;;;;6.07;2.70;;;22.90;67.90;;;;;;4957565;28;20035;-76
2022/09/05 11:08:57;;;;;;;5.10;2.17;;;22.80;67.80;;;;;;4932597;29;20085;-75
2022/09/05 11:11:24;;;;;;;6.70;2.72;;;22.80;67.80;;;;;;4942820;28;20037;-75
2022/09/05 11:13:54;;;;;;;5.38;1.83;;;22.90;67.90;;;;;;5015760;28;20029;-75
2022/09/05 11:16:35;;;;;;;4.85;1.98;;;22.90;67.90;;;;;;5018757;28;20036;-75
2022/09/05 11:19:05;;;;;;;5.28;2.17;;;22.90;67.90;;;;;;5055282;28;20036;-75
2022/09/05 11:21:43;;;;;;;4.90;1.98;;;22.90;67.90;;;;;;5055156;28;20040;-75
2022/09/05 11:24:27;;;;;;;4.25;2.17;;;22.80;67.80;;;;;;5071836;28;20400;-75
2022/09/05 11:26:56;;;;;;;5.15;2.35;;;22.80;67.80;;;;;;5071876;28;20028;-75
2022/09/05 11:29:40;;;;;;;5.32;2.08;;;22.90;67.90;;;;;;5054850;28;20040;-75
2022/09/05 11:32:29;;;;;;;6.50;2.70;;;22.80;67.90;;;;;;5055828;28;20147;-75
2022/09/05 11:35:23;;;;;;;3.85;2.20;;;22.80;67.90;;;;;;5097134;28;20031;-75
2022/09/05 11:37:58;;;;;;;5.13;1.90;;;22.90;67.90;;;;;;5113260;28;20041;-75
2022/09/05 11:40:38;;;;;;;3.33;1.73;;;22.90;67.90;;;;;;5114052;28;20080;-75
2022/09/05 11:43:29;;;;;;;3.88;2.22;;;22.80;68.00;;;;;;5114123;28;20034;-75
2022/09/05 11:46:32;;;;;;;4.35;2.70;;;22.90;68.00;;;;;;5113997;28;20431;-75
2022/09/05 11:49:17;;;;;;;2.97;1.65;;;22.90;67.90;;;;;;5114240;28;20031;-75
2022/09/05 11:52:00;;;;;;;3.85;1.67;;;22.80;68.00;;;;;;5112807;28;20048;-75
2022/09/05 11:54:47;;;;;;;3.38;1.90;;;22.80;68.00;;;;;;5113846;28;20024;-75
2022/09/05 11:57:31;;;;;;;3.38;2.13;;;22.90;68.00;;;;;;5113905;28;20479;-76
2022/09/05 12:00:21;;;;;;;4.82;1.83;;;22.90;68.00;;;;;;5113645;28;20115;-75
2022/09/05 12:03:05;;;;;;;4.25;1.88;;;22.80;68.00;;;;;;5113917;28;20031;-75
2022/09/05 12:05:35;;;;;;;5.85;1.95;;;22.80;68.00;;;;;;5113783;28;20023;-75
2022/09/05 12:08:08;;;;;;;3.65;1.90;;;22.90;68.10;;;;;;5105229;28;20023;-76
2022/09/05 12:10:54;;;;;;;5.13;2.03;;;22.90;68.00;;;;;;5071856;28;20483;-75
2022/09/05 12:14:01;;;;;;;4.10;1.98;;;22.90;68.00;;;;;;5071910;28;20021;-75
2022/09/05 12:17:06;;;;;;;3.38;1.90;;;22.80;68.00;;;;;;5052618;28;20111;-75
2022/09/05 12:19:33;;;;;;;3.50;1.83;;;22.90;68.00;;;;;;5056470;28;20103;-76
2022/09/05 12:22:01;;;;;;;4.43;1.90;;;22.90;68.10;;;;;;5054191;28;20081;-75
2022/09/05 12:24:45;;;;;;;3.85;1.80;;;22.80;68.10;;;;;;5053780;28;20415;-75
2022/09/05 12:27:12;;;;;;;3.55;1.90;;;22.90;68.10;;;;;;5070468;28;20413;-75
2022/09/05 12:29:39;;;;;;;5.40;1.95;;;22.90;68.10;;;;;;5053829;28;20021;-75
2022/09/05 12:32:32;;;;;;;3.03;1.90;;;22.90;68.20;;;;;;5054027;28;20032;-75
2022/09/05 12:34:59;;;;;;;2.60;2.00;;;22.90;68.10;;;;;;5067601;28;20029;-75
2022/09/05 12:37:46;;;;;;;3.67;2.10;;;22.90;68.10;;;;;;5053749;28;20199;-75
2022/09/05 12:40:16;;;;;;;2.47;1.70;;;22.90;68.10;;;;;;5053628;28;20112;-75
2022/09/05 12:42:52;;;;;;;2.45;1.58;;;22.90;68.20;;;;;;5054062;28;20073;-75
2022/09/05 12:45:40;;;;;;;3.80;1.90;;;22.90;68.20;;;;;;5053578;28;20103;-75
2022/09/05 12:48:24;;;;;;;4.88;2.42;;;22.90;68.20;;;;;;5055585;28;20464;-75
2022/09/05 12:50:56;;;;;;;3.58;1.83;;;22.90;68.20;;;;;;5091336;28;20063;-75
2022/09/05 12:53:33;;;;;;;4.45;1.95;;;22.90;68.20;;;;;;5111629;28;20027;-75
2022/09/05 12:56:21;;;;;;;4.05;2.20;;;22.90;68.20;;;;;;5113026;28;20076;-75
2022/09/05 12:58:49;;;;;;;3.72;1.77;;;22.90;68.20;;;;;;5094718;28;20387;-75
2022/09/05 13:01:15;;;;;;;2.72;1.88;;;22.90;68.30;;;;;;5094796;28;20027;-76
2022/09/05 13:03:56;;;;;;;4.32;2.05;;;22.90;68.30;;;;;;5112849;28;20028;-75
2022/09/05 13:06:44;;;;;;;4.05;1.77;;;22.90;68.30;;;;;;5111633;28;20096;-75
2022/09/05 13:09:36;;;;;;;2.17;1.50;;;22.90;68.30;;;;;;5083672;28;20021;-75
2022/09/05 13:12:28;;;;;;;5.55;1.80;;;23.00;68.40;;;;;;5069001;28;20116;-75
2022/09/05 13:15:06;;;;;;;2.50;1.50;;;23.00;68.40;;;;;;5071119;28;20027;-75
2022/09/05 13:17:37;;;;;;;4.05;1.50;;;23.00;68.40;;;;;;5112405;28;20045;-75
2022/09/05 13:20:35;;;;;;;2.92;1.88;;;23.00;68.40;;;;;;5112788;28;20115;-75
2022/09/05 13:23:27;;;;;;;2.92;1.80;;;23.00;68.40;;;;;;5057776;28;20033;-75
2022/09/05 13:26:10;;;;;;;3.13;1.50;;;23.00;68.40;;;;;;5053169;28;20544;-75
2022/09/05 13:28:53;;;;;;;3.03;1.77;;;23.00;68.40;;;;;;5053103;28;20025;-75
2022/09/05 13:31:40;;;;;;;4.40;1.50;;;23.00;68.40;;;;;;5070013;28;20098;-75
2022/09/05 13:34:18;;;;;;;2.50;1.55;;;23.00;68.40;;;;;;5069953;28;20036;-75
2022/09/05 13:37:11;;;;;;;3.25;1.85;;;23.00;68.50;;;;;;5069892;28;20025;-75
2022/09/05 13:39:50;;;;;;;2.35;1.45;;;23.00;68.50;;;;;;5052934;28;20037;-75
2022/09/05 13:42:18;;;;;;;1.60;1.42;;;23.00;68.50;;;;;;5056540;28;20112;-75
2022/09/05 13:44:45;;;;;;;2.60;1.40;;;23.10;68.60;;;;;;5040823;28;20017;-75
2022/09/05 13:47:49;;;;;;;2.55;1.73;;;23.10;68.60;;;;;;5040313;28;20040;-75
2022/09/05 13:50:29;;;;;;;3.60;2.13;;;23.10;68.50;;;;;;5073629;28;20029;-75
2022/09/05 13:53:14;;;;;;;1.77;1.17;;;23.10;68.50;;;;;;5056981;28;20039;-75
2022/09/05 13:55:44;;;;;;;2.58;1.50;;;23.10;68.50;;;;;;5041205;28;20035;-75